Time;durP1;ratioP1;P1;durP2;ratioP2;P2;SDS_P1;SDS_P2;PMS_P1;PMS_P2;Temp;Humidity;BMP_temperature;BMP_pressure;BME280_temperature;BME280_humidity;BME280_pressure;Samples;Min_cycle;Max_cycle;Signal;HPM_P1;HPM_P2
2023/06/22 00:01:28;;;;;;;44.55;11.32;;;;;;;14.41;54.70;99828.47;6191604;23;20467;-93
2023/06/22 00:04:03;;;;;;;35.97;11.68;;;;;;;14.30;54.90;99823.31;6191850;23;20092;-94
2023/06/22 00:06:38;;;;;;;34.28;11.50;;;;;;;14.16;55.37;99797.91;6140140;23;20351;-89
2023/06/22 00:09:04;;;;;;;41.13;12.40;;;;;;;14.14;55.27;99791.09;6166214;23;20443;-88
2023/06/22 00:11:33;;;;;;;36.75;12.30;;;;;;;14.25;55.01;99831.69;6188877;23;20028;-94
2023/06/22 00:14:00;;;;;;;45.53;12.70;;;;;;;14.29;55.12;99838.16;6163173;23;20028;-88
2023/06/22 00:19:40;;;;;;;40.83;15.07;;;;;;;14.19;54.94;99846.75;6070977;23;20453;-90
2023/06/22 00:22:06;;;;;;;45.38;16.25;;;;;;;13.98;55.11;99805.34;6048673;23;20101;-94
2023/06/22 00:24:34;;;;;;;46.17;15.32;;;;;;;14.09;56.05;99825.09;6069194;23;20027;-95
2023/06/22 00:27:00;;;;;;;48.58;18.33;;;;;;;14.07;56.03;99835.56;6021638;23;20040;-90
2023/06/22 00:29:26;;;;;;;76.32;32.67;;;;;;;13.88;55.93;99813.13;6067140;23;20015;-88
2023/06/22 00:32:20;;;;;;;82.63;34.90;;;;;;;14.06;55.84;99850.47;6070821;23;20101;-88
2023/06/22 00:34:47;;;;;;;74.15;32.58;;;;;;;14.07;55.82;99852.91;6022675;23;20023;-95
2023/06/22 00:37:13;;;;;;;81.05;31.30;;;;;;;14.09;56.22;99853.38;6000450;23;20030;-89
2023/06/22 00:39:39;;;;;;;69.10;29.80;;;;;;;13.97;56.04;99835.91;6071766;23;20015;-91
2023/06/22 00:42:05;;;;;;;73.05;32.38;;;;;;;14.16;55.93;99863.09;6072442;23;20042;-93
2023/06/22 00:44:37;;;;;;;69.38;31.42;;;;;;;14.00;55.46;99838.81;6048380;23;20026;-94
2023/06/22 00:47:52;;;;;;;77.53;33.42;;;;;;;14.13;55.40;99856.28;6070299;23;20045;-88
2023/06/22 00:50:21;;;;;;;79.18;31.85;;;;;;;14.06;56.26;99859.53;6045716;23;20026;-95
2023/06/22 00:52:53;;;;;;;74.93;32.38;;;;;;;13.74;57.12;99822.34;6072300;23;20048;-90
2023/06/22 00:55:23;;;;;;;73.05;31.77;;;;;;;13.90;57.17;99852.88;6057575;23;20018;-89
2023/06/22 00:57:49;;;;;;;69.50;30.98;;;;;;;13.89;57.01;99853.22;6139896;23;20056;-93
2023/06/22 01:00:20;;;;;;;77.07;28.70;;;;;;;13.79;57.65;99857.88;6142215;23;20447;-93
2023/06/22 01:02:46;;;;;;;65.03;29.65;;;;;;;13.56;58.48;99837.16;6166030;23;20028;-90
2023/06/22 01:05:23;;;;;;;74.07;30.52;;;;;;;13.62;58.43;99850.41;6116197;23;20063;-92
2023/06/22 01:08:07;;;;;;;73.70;31.07;;;;;;;13.53;58.62;99832.28;6115859;23;20359;-93
2023/06/22 01:10:51;;;;;;;70.43;30.70;;;;;;;13.49;59.04;99840.38;6115232;23;20260;-90
2023/06/22 01:13:20;;;;;;;76.93;31.95;;;;;;;13.58;58.96;99854.13;6189989;23;20024;-90
2023/06/22 01:15:59;;;;;;;73.63;31.13;;;;;;;13.56;59.32;99861.88;6190153;23;20020;-93
2023/06/22 01:18:39;;;;;;;69.72;29.48;;;;;;;13.55;59.56;99860.25;6164470;23;20397;-95
2023/06/22 01:24:40;;;;;;;75.47;28.17;;;;;;;13.46;60.68;99860.22;6099088;23;20029;-89
2023/06/22 01:27:33;;;;;;;70.00;29.15;;;;;;;13.40;60.66;99856.00;6051447;23;20014;-87
2023/06/22 01:30:05;;;;;;;68.95;27.85;;;;;;;13.27;60.47;99832.22;6051309;23;20034;-88
2023/06/22 01:32:37;;;;;;;62.53;26.25;;;;;;;13.27;60.17;99830.28;6075259;23;20025;-90
2023/06/22 01:35:08;;;;;;;53.65;24.10;;;;;;;13.60;59.50;99865.59;6074949;23;20023;-90
2023/06/22 01:37:49;;;;;;;52.70;22.10;;;;;;;13.68;58.99;99873.06;6095258;23;20559;-91
2023/06/22 01:40:31;;;;;;;53.90;21.10;;;;;;;13.76;58.46;99857.72;6050681;23;20038;-95
2023/06/22 01:43:05;;;;;;;52.10;24.00;;;;;;;13.70;58.57;99854.31;6099751;23;20022;-94
2023/06/22 01:45:36;;;;;;;58.67;23.70;;;;;;;13.57;58.97;99831.31;6101626;23;20054;-93
2023/06/22 01:48:05;;;;;;;69.38;24.83;;;;;;;13.59;59.27;99845.56;6100465;23;20052;-91
2023/06/22 01:50:32;;;;;;;66.10;23.27;;;;;;;13.67;59.55;99859.63;6100647;23;20022;-90
2023/06/22 01:53:00;;;;;;;52.55;23.60;;;;;;;13.68;59.61;99862.06;6075805;23;20113;-95
2023/06/22 01:55:26;;;;;;;51.35;23.25;;;;;;;13.66;60.17;99858.03;6074227;23;20508;-94
2023/06/22 01:57:53;;;;;;;56.67;23.05;;;;;;;13.66;59.91;99858.81;6050891;23;20527;-89
2023/06/22 02:00:23;;;;;;;52.58;22.52;;;;;;;13.61;59.34;99839.75;6088953;23;20040;-90
2023/06/22 02:02:58;;;;;;;53.03;22.13;;;;;;;13.68;59.31;99831.84;6190283;23;20023;-91
2023/06/22 02:05:29;;;;;;;55.95;22.58;;;;;;;13.88;59.28;99851.59;6189715;23;20017;-93
2023/06/22 02:08:07;;;;;;;53.33;21.63;;;;;;;13.97;59.98;99874.38;6164067;23;20017;-94
2023/06/22 02:10:38;;;;;;;51.75;21.02;;;;;;;14.01;59.22;99867.13;6164063;23;20075;-89
2023/06/22 02:13:14;;;;;;;46.28;20.83;;;;;;;13.87;59.43;99837.03;6165471;23;20080;-92
2023/06/22 02:16:39;;;;;;;39.75;19.23;;;;;;;14.11;58.76;99864.06;6164548;23;20017;-94
2023/06/22 02:19:33;;;;;;;42.70;19.40;;;;;;;14.19;58.65;99871.50;6164450;23;20442;-96
2023/06/22 02:21:59;;;;;;;54.30;19.52;;;;;;;14.02;58.79;99830.25;6162226;23;20087;-90
2023/06/22 02:24:25;;;;;;;66.13;20.42;;;;;;;13.85;58.38;99792.59;6158683;23;20013;-89
2023/06/22 02:26:51;;;;;;;71.38;22.00;;;;;;;14.28;59.25;99855.00;6189332;23;20023;-89
2023/06/22 02:29:17;;;;;;;63.58;24.38;;;;;;;14.26;58.06;99833.31;6113780;23;20060;-89
2023/06/22 02:31:43;;;;;;;55.33;23.70;;;;;;;14.49;58.08;99857.88;6156861;23;20096;-89
2023/06/22 02:34:09;;;;;;;58.03;21.35;;;;;;;14.39;57.85;99822.47;6111218;23;20028;-90
2023/06/22 02:36:35;;;;;;;51.45;19.58;;;;;;;14.56;58.50;99842.53;6160586;23;20042;-88
2023/06/22 02:39:03;;;;;;;62.33;20.35;;;;;;;14.49;58.32;99838.63;6135106;23;20096;-91
2023/06/22 02:41:30;;;;;;;57.25;21.55;;;;;;;14.27;58.32;99790.94;6158683;23;20022;-90
2023/06/22 02:43:56;;;;;;;66.40;22.42;;;;;;;14.51;58.58;99819.91;6159001;23;20022;-94
2023/06/22 02:46:22;;;;;;;69.43;23.08;;;;;;;14.33;58.62;99789.63;6159123;23;20068;-93
2023/06/22 02:48:52;;;;;;;66.20;22.80;;;;;;;14.54;58.50;99806.28;6159558;23;20021;-88
2023/06/22 02:51:18;;;;;;;62.70;23.92;;;;;;;14.69;58.34;99810.44;6135293;23;20024;-89
2023/06/22 02:53:44;;;;;;;62.63;23.90;;;;;;;14.84;58.62;99824.84;6133292;23;20021;-89
2023/06/22 02:56:12;;;;;;;66.13;24.38;;;;;;;14.78;58.84;99813.19;6110700;23;20491;-89
2023/06/22 02:58:39;;;;;;;61.00;22.15;;;;;;;14.92;58.96;99832.25;6135748;23;20025;-94
2023/06/22 03:01:09;;;;;;;56.85;21.17;;;;;;;14.72;58.91;99787.78;6134952;23;20021;-91
2023/06/22 03:06:13;;;;;;;55.45;16.83;;;;;;;14.84;58.20;99791.81;6138336;23;20248;-94
2023/06/22 03:08:43;;;;;;;36.70;15.18;;;;;;;15.06;57.99;99819.06;6162938;23;20018;-94
2023/06/22 03:11:10;;;;;;;48.63;16.40;;;;;;;15.23;57.06;99827.25;6162178;23;20018;-89
2023/06/22 03:13:36;;;;;;;56.75;14.90;;;;;;;15.35;56.80;99818.28;6164304;23;20367;-94
2023/06/22 03:16:02;;;;;;;39.65;15.35;;;;;;;15.31;57.04;99805.50;6111343;23;20022;-92
2023/06/22 03:18:29;;;;;;;53.45;15.52;;;;;;;15.57;56.94;99819.94;6138021;23;20460;-89
2023/06/22 03:20:55;;;;;;;56.10;14.18;;;;;;;15.55;56.35;99800.16;6138736;23;20021;-90
2023/06/22 03:23:21;;;;;;;50.20;14.07;;;;;;;15.74;56.01;99817.09;6162114;23;20013;-92
2023/06/22 03:25:51;;;;;;;;;;;;;;;15.84;55.89;99815.09;6162657;23;20448;-89
2023/06/22 03:28:20;;;;;;;35.67;12.93;;;;;;;15.81;55.65;99797.25;6159889;23;19916;-88
2023/06/22 03:30:55;;;;;;;29.05;10.80;;;;;;;15.98;54.02;99819.16;6162604;23;20013;-88
2023/06/22 03:33:22;;;;;;;27.60;9.83;;;;;;;15.80;52.39;99770.03;6160256;23;20096;-95
2023/06/22 03:35:57;;;;;;;15.70;8.50;;;;;;;15.90;51.74;99777.91;6136441;23;20045;-88
2023/06/22 03:38:23;;;;;;;22.65;8.95;;;;;;;16.10;51.73;99793.63;6161090;23;20021;-89
2023/06/22 03:40:52;;;;;;;14.75;7.50;;;;;;;16.27;50.61;99803.69;6134425;23;20014;-89
2023/06/22 03:43:19;;;;;;;21.05;8.57;;;;;;;16.21;50.67;99782.97;6135859;23;20013;-95
2023/06/22 03:45:45;;;;;;;22.65;8.95;;;;;;;16.31;51.38;99784.50;6160428;23;20045;-90
2023/06/22 03:48:12;;;;;;;22.85;8.85;;;;;;;16.54;50.91;99802.28;6160265;23;20029;-89
2023/06/22 03:50:38;;;;;;;19.10;8.80;;;;;;;16.61;50.94;99796.19;6136661;23;20020;-88
2023/06/22 03:53:05;;;;;;;21.55;8.48;;;;;;;16.64;50.43;99793.56;6160630;23;20018;-91
2023/06/22 03:55:30;;;;;;;25.50;9.23;;;;;;;16.77;50.32;99793.63;6158984;23;20017;-90
2023/06/22 03:58:12;;;;;;;25.88;9.90;;;;;;;16.70;51.59;99766.53;6161062;23;20030;-89
2023/06/22 04:00:39;;;;;;;16.13;9.68;;;;;;;16.89;51.74;99771.53;6163849;23;20017;-88
2023/06/22 04:03:07;;;;;;;18.80;9.43;;;;;;;17.01;51.54;99770.72;6160836;23;20024;-91
2023/06/22 04:05:34;;;;;;;19.65;8.80;;;;;;;17.16;51.40;99774.78;6161005;23;20028;-90
2023/06/22 04:08:03;;;;;;;14.52;7.72;;;;;;;16.95;49.61;99730.69;6118936;23;20488;-95
2023/06/22 04:10:33;;;;;;;16.00;8.32;;;;;;;16.96;48.74;99716.53;6138216;23;20164;-90
2023/06/22 04:13:00;;;;;;;21.02;9.35;;;;;;;17.36;50.04;99765.53;6160790;23;20013;-92
2023/06/22 04:15:26;;;;;;;14.32;7.93;;;;;;;17.33;48.35;99757.94;6162087;23;20021;-86
2023/06/22 04:18:30;;;;;;;24.60;8.48;;;;;;;17.68;48.37;99780.34;6159287;23;20017;-88
2023/06/22 04:20:56;;;;;;;27.25;8.43;;;;;;;17.54;47.83;99739.25;6084892;23;20029;-89
2023/06/22 04:23:22;;;;;;;15.95;8.15;;;;;;;17.81;48.05;99759.00;6107750;23;20022;-87
2023/06/22 04:26:14;;;;;;;16.70;7.93;;;;;;;18.11;47.22;99778.84;6108177;23;20018;-88
2023/06/22 04:28:51;;;;;;;17.98;8.25;;;;;;;17.99;47.46;99743.75;6108513;23;20018;-89
2023/06/22 04:31:42;;;;;;;17.33;8.35;;;;;;;18.20;46.77;99748.25;6137001;23;20030;-89
2023/06/22 04:35:04;;;;;;;21.27;9.37;;;;;;;18.46;47.04;99767.94;6133306;23;20049;-89
2023/06/22 04:37:39;;;;;;;18.35;8.52;;;;;;;18.45;46.32;99757.25;6111457;23;20025;-89
2023/06/22 04:40:06;;;;;;;16.05;9.20;;;;;;;18.69;46.38;99770.13;6106158;23;20041;-89
2023/06/22 04:42:35;;;;;;;18.02;8.52;;;;;;;18.59;46.54;99743.75;6131299;23;20056;-88
2023/06/22 04:48:15;;;;;;;20.08;8.25;;;;;;;18.83;46.06;99730.94;6060671;23;20034;-93
2023/06/22 04:50:42;;;;;;;17.30;8.43;;;;;;;18.91;46.10;99719.69;6056370;23;20626;-93
2023/06/22 04:53:09;;;;;;;17.92;8.45;;;;;;;19.24;46.20;99758.06;6008076;23;20117;-92
2023/06/22 04:55:37;;;;;;;29.17;9.00;;;;;;;19.21;45.97;99736.63;6033163;23;20090;-91
2023/06/22 04:58:05;;;;;;;22.48;10.18;;;;;;;19.42;45.15;99758.47;6083246;23;20027;-91
2023/06/22 05:00:32;;;;;;;34.15;9.77;;;;;;;19.52;45.11;99756.31;6012486;23;20465;-91
2023/06/22 05:03:00;;;;;;;24.00;8.23;;;;;;;19.61;44.67;99768.00;6027424;23;20022;-91
2023/06/22 05:05:29;;;;;;;15.93;6.50;;;;;;;19.62;45.14;99741.88;6052513;23;20045;-88
2023/06/22 05:08:06;;;;;;;15.90;6.68;;;;;;;19.79;43.90;99760.88;6051817;23;20026;-93
2023/06/22 05:10:33;;;;;;;28.13;7.63;;;;;;;19.90;44.23;99758.31;6052125;23;20090;-87
2023/06/22 05:12:59;;;;;;;13.75;7.47;;;;;;;19.86;41.55;99732.47;6024822;23;20018;-89
2023/06/22 05:15:30;;;;;;;10.80;6.50;;;;;;;20.04;42.48;99739.22;6050278;23;20038;-91
2023/06/22 05:18:23;;;;;;;16.60;5.45;;;;;;;20.31;42.73;99764.31;6028652;23;20025;-90
2023/06/22 05:21:14;;;;;;;16.27;5.63;;;;;;;20.28;41.26;99748.38;6073689;23;20528;-91
2023/06/22 05:23:40;;;;;;;15.70;5.50;;;;;;;20.11;40.23;99728.25;6071839;23;20026;-89
2023/06/22 05:26:09;;;;;;;11.33;5.00;;;;;;;20.16;40.61;99746.56;6160788;23;20017;-91
2023/06/22 05:28:35;;;;;;;21.20;5.15;;;;;;;20.28;40.71;99757.50;6161967;23;20479;-92
2023/06/22 05:31:01;;;;;;;14.60;4.73;;;;;;;20.04;40.74;99716.22;6139217;23;20025;-90
2023/06/22 05:33:54;;;;;;;11.13;4.93;;;;;;;20.22;40.33;99750.66;6152389;23;20036;-89
2023/06/22 05:36:21;;;;;;;15.68;4.93;;;;;;;20.18;40.41;99735.91;6144923;23;20044;-91
2023/06/22 05:38:58;;;;;;;6.00;4.50;;;;;;;20.32;40.02;99752.81;6148261;23;20052;-94
2023/06/22 05:41:24;;;;;;;26.00;5.35;;;;;;;20.32;40.18;99752.03;6174662;23;20466;-92
2023/06/22 05:43:50;;;;;;;9.07;4.17;;;;;;;20.42;40.29;99760.53;6122849;23;20013;-89
2023/06/22 05:46:16;;;;;;;12.97;4.80;;;;;;;20.33;38.12;99746.13;6140380;23;20088;-90
2023/06/22 05:48:43;;;;;;;8.15;4.20;;;;;;;20.62;38.81;99749.41;6166622;23;20067;-95
2023/06/22 05:51:11;;;;;;;11.30;4.32;;;;;;;20.53;37.93;99726.63;6166412;23;20017;-95
2023/06/22 05:53:37;;;;;;;11.13;4.40;;;;;;;20.62;37.99;99722.44;6165992;23;20039;-88
2023/06/22 05:56:04;;;;;;;9.43;4.50;;;;;;;20.70;37.48;99717.84;6140417;23;20024;-90
2023/06/22 05:58:30;;;;;;;18.35;4.97;;;;;;;20.88;37.71;99730.03;6141869;23;20040;-90
2023/06/22 06:00:56;;;;;;;13.53;4.67;;;;;;;21.11;38.14;99738.31;6116277;23;20024;-88
2023/06/22 06:03:22;;;;;;;18.43;4.60;;;;;;;21.09;37.27;99734.31;6141772;23;20343;-88
2023/06/22 06:05:59;;;;;;;25.38;4.47;;;;;;;21.30;36.70;99751.34;6112084;23;20445;-88
2023/06/22 06:08:25;;;;;;;12.00;4.53;;;;;;;21.26;38.77;99719.91;6116694;23;20032;-94
2023/06/22 06:11:17;;;;;;;11.10;4.53;;;;;;;21.51;37.90;99745.28;6194114;23;20044;-90
2023/06/22 06:13:46;;;;;;;16.75;5.35;;;;;;;21.46;37.04;99730.94;6139626;23;20518;-91
2023/06/22 06:16:15;;;;;;;12.60;4.30;;;;;;;21.51;36.29;99727.81;6165736;23;20478;-89
2023/06/22 06:18:41;;;;;;;19.65;5.05;;;;;;;21.56;37.06;99721.94;6194065;23;20016;-84
2023/06/22 06:21:07;;;;;;;22.77;5.55;;;;;;;21.56;35.75;99710.81;6191807;23;20009;-84
2023/06/22 06:23:34;;;;;;;18.13;5.50;;;;;;;21.74;36.09;99730.50;6198677;23;20097;-93
2023/06/22 06:26:50;;;;;;;22.85;5.22;;;;;;;21.70;35.47;99696.28;6176635;23;20028;-94
2023/06/22 06:29:19;;;;;;;12.90;4.95;;;;;;;21.79;35.74;99699.56;6142439;23;20033;-93
2023/06/22 06:31:48;;;;;;;15.30;5.47;;;;;;;21.87;35.73;99701.25;6118010;23;20025;-91
2023/06/22 06:34:14;;;;;;;15.13;5.28;;;;;;;22.09;35.71;99710.66;6115230;23;20049;-92
2023/06/22 06:36:49;;;;;;;18.00;5.43;;;;;;;22.03;36.22;99684.31;6116964;23;20395;-91
2023/06/22 06:39:20;;;;;;;10.95;4.18;;;;;;;22.20;35.97;99700.44;6118447;23;20328;-90
2023/06/22 06:41:46;;;;;;;10.60;4.10;;;;;;;22.34;36.31;99724.84;6166428;23;20019;-93
2023/06/22 06:44:18;;;;;;;8.80;4.78;;;;;;;22.02;34.95;99677.16;6167172;23;20057;-90
2023/06/22 06:46:50;;;;;;;10.52;4.38;;;;;;;22.51;34.82;99737.34;6136698;23;20017;-89
2023/06/22 06:49:16;;;;;;;13.23;4.90;;;;;;;22.42;33.75;99723.75;6134731;23;20355;-87
2023/06/22 06:51:42;;;;;;;13.32;4.47;;;;;;;22.76;35.23;99743.16;6158152;23;20089;-87
2023/06/22 06:54:08;;;;;;;10.33;4.63;;;;;;;22.74;34.15;99726.00;6185093;23;20025;-86
2023/06/22 06:56:47;;;;;;;11.73;4.70;;;;;;;22.86;34.79;99733.28;6158888;23;20395;-87
2023/06/22 06:59:23;;;;;;;8.45;4.82;;;;;;;22.90;35.02;99714.59;6135599;23;20020;-86
2023/06/22 07:01:49;;;;;;;17.45;4.63;;;;;;;23.05;35.17;99726.72;6158512;23;20037;-84
2023/06/22 07:04:15;;;;;;;9.03;4.47;;;;;;;23.03;33.38;99720.69;6155714;23;20017;-87
2023/06/22 07:06:42;;;;;;;7.13;4.03;;;;;;;23.23;33.10;99729.59;6152401;23;20036;-85
2023/06/22 07:09:08;;;;;;;23.33;5.03;;;;;;;23.23;34.16;99705.28;6181986;23;20509;-89
2023/06/22 07:11:35;;;;;;;17.48;5.28;;;;;;;23.31;33.29;99718.13;6155386;23;20028;-88
2023/06/22 07:14:01;;;;;;;26.60;5.55;;;;;;;23.55;33.70;99733.41;6156069;23;20074;-87
2023/06/22 07:19:28;;;;;;;11.65;5.25;;;;;;;23.62;34.14;99721.47;6181825;23;20168;-86
2023/06/22 07:21:55;;;;;;;16.20;4.88;;;;;;;23.64;31.12;99719.88;6157643;23;20017;-85
2023/06/22 07:24:21;;;;;;;8.57;5.22;;;;;;;23.62;32.05;99691.56;6180934;23;20045;-89
2023/06/22 07:26:49;;;;;;;11.77;4.70;;;;;;;23.96;32.50;99722.03;6129868;23;20021;-86
2023/06/22 07:29:22;;;;;;;20.67;5.20;;;;;;;23.75;31.11;99717.16;6138461;23;20027;-86
2023/06/22 07:31:57;;;;;;;19.38;5.53;;;;;;;23.77;30.55;99716.75;6159621;23;20020;-89
2023/06/22 07:34:23;;;;;;;19.30;4.97;;;;;;;23.88;32.96;99721.22;6120780;23;20517;-86
2023/06/22 07:36:51;;;;;;;15.93;4.80;;;;;;;23.97;32.42;99715.25;6182372;23;20112;-87
2023/06/22 07:39:17;;;;;;;11.23;4.57;;;;;;;23.90;32.43;99704.03;6159946;23;20013;-90
2023/06/22 07:41:43;;;;;;;11.68;4.53;;;;;;;23.96;31.94;99699.69;6185970;23;20095;-89
2023/06/22 07:44:09;;;;;;;18.98;5.07;;;;;;;24.23;32.08;99727.28;6133428;23;20041;-87
2023/06/22 07:46:35;;;;;;;14.82;4.88;;;;;;;24.08;33.19;99710.50;6185291;23;20024;-89
2023/06/22 07:49:03;;;;;;;11.32;4.95;;;;;;;24.00;31.11;99689.31;6184689;23;20044;-91
2023/06/22 07:51:38;;;;;;;;;;;;;;;24.19;30.96;99710.53;6136523;23;20025;-88
2023/06/22 07:54:19;;;;;;;6.95;4.50;;;;;;;23.77;32.00;99675.69;6164049;23;19916;-91
2023/06/22 07:56:46;;;;;;;8.80;5.20;;;;;;;23.88;31.73;99700.88;6187595;23;20140;-89
2023/06/22 07:59:12;;;;;;;9.20;4.60;;;;;;;23.94;32.19;99710.47;6135606;23;20017;-87
2023/06/22 08:04:45;;;;;;;7.03;5.07;;;;;;;24.20;33.84;99716.91;6134121;23;20281;-88
2023/06/22 08:07:11;;;;;;;7.40;5.13;;;;;;;24.07;33.97;99647.47;6101529;23;20101;-88
2023/06/22 08:09:37;;;;;;;11.50;5.20;;;;;;;24.07;33.11;99646.66;6118446;23;20018;-87
2023/06/22 08:12:07;;;;;;;8.10;4.60;;;;;;;24.29;31.74;99681.81;6121181;23;20025;-90
2023/06/22 08:14:37;;;;;;;49.03;6.35;;;;;;;24.00;31.84;99674.56;6129840;23;20018;-93
2023/06/22 08:17:05;;;;;;;7.68;4.28;;;;;;;23.90;32.34;99676.91;6076974;23;20022;-88
2023/06/22 08:19:33;;;;;;;9.75;4.60;;;;;;;24.23;32.65;99702.94;6099311;23;20022;-86
2023/06/22 08:22:00;;;;;;;12.88;4.70;;;;;;;24.14;32.89;99681.00;6129340;23;20086;-88
2023/06/22 08:24:30;;;;;;;12.57;4.60;;;;;;;24.07;31.71;99685.75;6125852;23;20025;-86
2023/06/22 08:26:57;;;;;;;16.60;4.68;;;;;;;24.10;33.35;99685.75;6125689;23;20021;-85
2023/06/22 08:29:24;;;;;;;20.88;5.80;;;;;;;24.26;32.27;99695.78;6081086;23;20120;-87
2023/06/22 08:32:14;;;;;;;6.30;4.40;;;;;;;24.36;32.94;99689.41;6101477;23;20511;-87
2023/06/22 08:34:44;;;;;;;8.32;4.88;;;;;;;24.12;31.38;99661.03;6049003;23;20105;-91
2023/06/22 08:37:10;;;;;;;14.45;8.48;;;;;;;24.24;30.89;99675.81;6050704;23;20018;-89
2023/06/22 08:39:39;;;;;;;13.15;6.28;;;;;;;24.42;31.26;99667.50;6047590;23;20029;-88
2023/06/22 08:42:09;;;;;;;17.25;5.35;;;;;;;24.33;31.09;99623.91;6100282;23;20106;-92
2023/06/22 08:44:35;;;;;;;12.98;7.25;;;;;;;24.52;31.62;99653.50;6044604;23;20019;-88
2023/06/22 08:47:13;;;;;;;17.13;8.57;;;;;;;24.67;31.34;99675.84;6077645;23;20536;-88
2023/06/22 08:49:39;;;;;;;11.80;5.95;;;;;;;24.23;30.98;99626.72;6102198;23;20027;-88
2023/06/22 08:52:06;;;;;;;9.63;4.93;;;;;;;24.35;31.79;99640.31;6075802;23;20372;-85
2023/06/22 08:54:34;;;;;;;10.93;5.03;;;;;;;24.61;30.98;99667.88;6099481;23;20065;-90
2023/06/22 08:57:04;;;;;;;8.50;5.22;;;;;;;24.75;31.49;99683.06;6052254;23;20448;-91
2023/06/22 08:59:58;;;;;;;13.25;4.78;;;;;;;24.52;30.85;99650.72;6159137;23;20349;-88
2023/06/22 09:02:31;;;;;;;13.23;5.43;;;;;;;24.71;31.11;99671.88;6167634;23;20021;-90
2023/06/22 09:04:58;;;;;;;20.38;4.65;;;;;;;24.41;30.03;99624.78;6190778;23;20020;-90
2023/06/22 09:07:51;;;;;;;;;;;;;;;24.72;30.68;99664.28;6217011;23;20111;-85
2023/06/22 09:10:29;;;;;;;10.00;4.80;;;;;;;24.57;31.68;99613.19;6223321;23;20248;-88
2023/06/22 09:12:55;;;;;;;19.58;4.88;;;;;;;24.55;30.93;99635.94;6220361;23;20023;-86
2023/06/22 09:15:21;;;;;;;8.50;4.82;;;;;;;24.67;30.21;99651.53;6187067;23;20074;-90
2023/06/22 09:17:48;;;;;;;15.32;4.90;;;;;;;24.57;31.18;99618.78;6246945;23;20790;-89
2023/06/22 09:20:14;;;;;;;15.15;4.80;;;;;;;24.78;31.83;99634.72;6246015;23;20520;-85
2023/06/22 09:22:40;;;;;;;19.00;5.10;;;;;;;25.02;29.76;99659.06;6218352;23;20016;-86
2023/06/22 09:25:07;;;;;;;15.25;5.50;;;;;;;24.99;30.17;99659.06;6240694;23;20043;-85
2023/06/22 09:27:45;;;;;;;11.45;5.07;;;;;;;24.79;30.16;99625.94;6219133;23;20024;-87
2023/06/22 09:30:13;;;;;;;9.60;5.35;;;;;;;24.55;30.68;99580.03;6250637;23;20020;-90
2023/06/22 09:32:39;;;;;;;21.02;5.13;;;;;;;24.93;30.97;99602.72;6198298;23;20020;-91
2023/06/22 09:35:30;;;;;;;10.48;4.88;;;;;;;25.14;30.67;99618.69;6230203;23;20035;-91
2023/06/22 09:40:42;;;;;;;9.47;5.10;;;;;;;25.00;27.72;99632.69;6246928;23;20023;-84
2023/06/22 09:43:11;;;;;;;13.77;4.90;;;;;;;24.97;29.05;99634.31;6251891;23;20027;-87
2023/06/22 09:45:38;;;;;;;16.95;5.85;;;;;;;24.92;30.75;99606.72;6225231;23;20030;-90
2023/06/22 09:48:06;;;;;;;10.15;4.20;;;;;;;25.14;30.22;99613.09;6194801;23;20107;-93
2023/06/22 09:50:39;;;;;;;13.40;4.65;;;;;;;25.25;27.36;99627.84;6244990;23;20103;-85
2023/06/22 09:53:07;;;;;;;20.50;5.20;;;;;;;25.23;28.83;99629.44;6218826;23;20353;-88
2023/06/22 09:55:34;;;;;;;18.75;4.82;;;;;;;25.22;29.74;99605.47;6247094;23;20020;-85
2023/06/22 09:58:00;;;;;;;13.32;4.85;;;;;;;25.17;31.03;99589.13;6245557;23;20023;-84
2023/06/22 10:00:28;;;;;;;14.23;5.50;;;;;;;25.36;29.01;99613.81;6220387;23;20019;-87
2023/06/22 10:02:55;;;;;;;12.48;5.10;;;;;;;25.50;29.42;99613.78;6192493;23;20023;-86
2023/06/22 10:05:25;;;;;;;8.65;5.03;;;;;;;25.48;29.64;99592.97;6242046;23;20016;-86
2023/06/22 10:07:54;;;;;;;19.52;5.00;;;;;;;25.69;28.23;99625.66;6246327;23;20016;-87
2023/06/22 10:10:20;;;;;;;;;;;;;;;25.68;27.49;99612.88;6191490;23;20099;-85
2023/06/22 10:12:47;;;;;;;;;;;;;;;25.50;27.79;99616.56;6220726;23;20011;-85
2023/06/22 10:15:14;;;;;;;13.73;4.40;;;;;;;25.28;28.09;99585.06;6247027;23;19916;-91
2023/06/22 10:17:47;;;;;;;10.80;5.10;;;;;;;25.54;28.25;99608.94;6250747;23;20020;-91
2023/06/22 10:20:14;;;;;;;11.95;5.13;;;;;;;25.60;27.76;99608.53;6224662;23;20016;-89
2023/06/22 10:22:44;;;;;;;11.25;4.75;;;;;;;25.35;28.18;99589.03;6224850;23;20023;-86
2023/06/22 10:25:12;;;;;;;41.47;6.65;;;;;;;25.31;29.73;99573.06;6248563;23;20043;-82
2023/06/22 10:27:41;;;;;;;9.52;5.50;;;;;;;25.50;29.64;99594.19;6246134;23;20022;-85
2023/06/22 10:30:09;;;;;;;8.60;5.55;;;;;;;25.59;28.59;99581.72;6246197;23;20020;-83
2023/06/22 10:32:36;;;;;;;14.68;5.70;;;;;;;25.92;30.70;99595.13;6245994;23;20023;-85
2023/06/22 10:35:02;;;;;;;10.70;5.13;;;;;;;26.09;30.37;99589.81;6251263;23;20024;-86
2023/06/22 10:37:29;;;;;;;18.23;5.32;;;;;;;26.12;29.43;99566.59;6252604;23;20023;-90
2023/06/22 10:39:55;;;;;;;11.82;4.63;;;;;;;26.21;26.60;99564.13;6203998;23;20075;-86
2023/06/22 10:42:21;;;;;;;7.78;5.03;;;;;;;26.16;27.93;99570.19;6255141;23;20016;-85
2023/06/22 10:44:49;;;;;;;9.82;4.72;;;;;;;26.20;27.83;99554.13;6249015;23;20016;-87
2023/06/22 10:47:15;;;;;;;12.63;5.28;;;;;;;26.30;27.50;99556.03;6225769;23;20078;-89
2023/06/22 10:49:42;;;;;;;8.82;5.60;;;;;;;26.10;26.27;99564.22;6167168;23;20021;-84
2023/06/22 10:52:09;;;;;;;14.82;5.82;;;;;;;26.01;27.68;99556.25;6244690;23;20020;-83
2023/06/22 10:54:36;;;;;;;14.43;6.05;;;;;;;26.02;27.17;99563.44;6245214;23;20019;-84
2023/06/22 10:57:04;;;;;;;18.52;5.50;;;;;;;26.31;28.84;99571.63;6216995;23;20070;-84
2023/06/22 10:59:30;;;;;;;13.02;6.10;;;;;;;26.44;29.04;99547.50;6237175;23;20012;-85
2023/06/22 11:01:57;;;;;;;12.00;5.43;;;;;;;26.73;29.73;99552.84;6245780;23;20043;-83
2023/06/22 11:04:24;;;;;;;12.40;6.63;;;;;;;26.62;26.36;99557.75;6219492;23;20091;-84
2023/06/22 11:06:50;;;;;;;10.23;5.90;;;;;;;26.59;26.60;99555.78;6219434;23;20085;-87
2023/06/22 11:09:21;;;;;;;14.65;6.22;;;;;;;26.50;25.89;99549.91;6217809;23;20099;-85
2023/06/22 11:11:50;;;;;;;10.85;6.10;;;;;;;26.32;27.06;99536.78;6218743;23;20023;-85
2023/06/22 11:14:17;;;;;;;15.23;5.72;;;;;;;26.44;27.43;99539.09;6245714;23;20020;-84
2023/06/22 11:16:43;;;;;;;14.57;5.68;;;;;;;26.61;28.09;99528.13;6191073;23;20069;-84
2023/06/22 11:19:09;;;;;;;14.77;6.07;;;;;;;26.79;27.79;99513.91;6242950;23;20039;-85
2023/06/22 11:21:35;;;;;;;9.32;6.13;;;;;;;27.03;27.74;99540.09;6243637;23;20438;-84
2023/06/22 11:24:01;;;;;;;23.52;7.03;;;;;;;26.93;27.13;99548.22;6242766;23;20016;-84
2023/06/22 11:26:27;;;;;;;19.05;5.85;;;;;;;26.77;27.12;99530.38;6246022;23;20098;-90
2023/06/22 11:28:53;;;;;;;16.33;6.35;;;;;;;26.82;27.58;99547.56;6246844;23;20044;-87
2023/06/22 11:31:22;;;;;;;15.68;7.07;;;;;;;26.83;26.18;99539.94;6224660;23;20104;-90
2023/06/22 11:33:48;;;;;;;11.98;7.63;;;;;;;26.83;26.84;99537.13;6247516;23;20405;-88
2023/06/22 11:36:14;;;;;;;17.77;7.55;;;;;;;26.91;27.38;99533.81;6247182;23;20072;-89
2023/06/22 11:38:40;;;;;;;25.15;8.23;;;;;;;26.77;27.46;99535.97;6221941;23;20039;-86
2023/06/22 11:41:07;;;;;;;13.20;7.60;;;;;;;26.60;27.98;99509.72;6248255;23;20462;-87
2023/06/22 11:43:35;;;;;;;21.60;7.93;;;;;;;26.65;28.29;99517.66;6193664;23;20111;-85
2023/06/22 11:46:05;;;;;;;15.38;7.63;;;;;;;26.60;28.58;99516.13;6251801;23;20012;-93
2023/06/22 11:48:31;;;;;;;15.32;8.23;;;;;;;27.06;29.92;99519.63;6198819;23;20016;-91
2023/06/22 11:50:57;;;;;;;9.30;6.80;;;;;;;27.02;29.14;99469.16;6169860;23;20460;-90
2023/06/22 11:53:25;;;;;;;11.50;7.30;;;;;;;27.62;28.31;99522.91;6186996;23;20016;-90
2023/06/22 11:55:51;;;;;;;13.23;7.55;;;;;;;27.79;28.50;99501.41;6193598;23;20027;-90
2023/06/22 11:58:20;;;;;;;15.55;7.72;;;;;;;27.90;26.84;99492.78;6218283;23;20048;-90
2023/06/22 12:00:46;;;;;;;22.38;7.68;;;;;;;27.51;27.81;99474.50;6195480;23;20024;-89